createdAt,value
2018-04-27T00:00:54.200Z,9.65
2018-04-27T00:01:54.190Z,9.59
2018-04-27T00:02:54.192Z,9.61
2018-04-27T00:03:54.187Z,9.62
2018-04-27T00:04:54.182Z,9.54
2018-04-27T00:05:54.177Z,9.48
2018-04-27T00:06:54.176Z,9.51
2018-04-27T00:07:54.192Z,9.43
2018-04-27T00:08:55.153Z,9.46
2018-04-27T00:09:54.161Z,9.51
2018-04-27T00:10:54.161Z,9.48
2018-04-27T00:11:54.154Z,9.47
2018-04-27T00:12:54.152Z,9.44
2018-04-27T00:13:54.146Z,9.34
2018-04-27T00:14:54.185Z,9.41
2018-04-27T00:15:54.138Z,9.37
2018-04-27T00:16:54.139Z,9.36
2018-04-27T00:17:54.130Z,9.28
2018-04-27T00:18:54.130Z,9.25
2018-04-27T00:19:54.123Z,9.25
2018-04-27T00:20:54.127Z,9.21
2018-04-27T00:21:54.117Z,9.14
2018-04-27T00:22:54.110Z,9.19
2018-04-27T00:23:54.107Z,9.22
2018-04-27T00:24:54.102Z,9.14
2018-04-27T00:25:54.099Z,9.19
2018-04-27T00:26:54.096Z,9.14
2018-04-27T00:27:54.101Z,9.16
2018-04-27T00:28:54.089Z,9.11
2018-04-27T00:29:54.082Z,9.14
2018-04-27T00:30:54.086Z,9.06
2018-04-27T00:31:54.089Z,9.10
2018-04-27T00:32:54.071Z,9.08
2018-04-27T00:33:54.068Z,9.08
2018-04-27T00:34:54.073Z,9.02
2018-04-27T00:35:54.063Z,8.89
2018-04-27T00:36:54.055Z,8.91
2018-04-27T00:37:54.050Z,8.97
2018-04-27T00:38:54.050Z,8.82
2018-04-27T00:39:54.048Z,8.84
2018-04-27T00:40:54.040Z,8.88
2018-04-27T00:41:54.040Z,8.87
2018-04-27T00:42:54.031Z,8.92
2018-04-27T00:43:54.027Z,8.89
2018-04-27T00:44:54.025Z,8.88
2018-04-27T00:45:54.031Z,8.85
2018-04-27T00:46:54.026Z,8.84
2018-04-27T00:47:54.012Z,8.88
2018-04-27T00:48:54.023Z,8.78
2018-04-27T00:49:54.002Z,8.70
2018-04-27T00:50:54.006Z,8.74
2018-04-27T00:51:53.997Z,8.81
2018-04-27T00:52:53.997Z,8.81
2018-04-27T00:53:53.988Z,8.81
2018-04-27T00:54:53.988Z,8.85
2018-04-27T00:55:53.977Z,8.78
2018-04-27T00:56:53.983Z,8.76
2018-04-27T00:57:53.972Z,8.74
2018-04-27T00:58:53.964Z,8.81
2018-04-27T00:59:53.991Z,8.74
2018-04-27T01:00:53.957Z,8.73
2018-04-27T01:01:53.959Z,8.76
2018-04-27T01:02:53.949Z,8.70
2018-04-27T01:03:53.945Z,8.79
2018-04-27T01:04:53.941Z,8.74
2018-04-27T01:05:53.938Z,8.74
2018-04-27T01:06:53.944Z,8.71
2018-04-27T01:07:53.928Z,8.76
2018-04-27T01:08:53.928Z,8.76
2018-04-27T01:09:53.922Z,8.74
2018-04-27T01:10:53.992Z,8.73
2018-04-27T01:11:53.914Z,8.64
2018-04-27T01:12:53.911Z,8.66
2018-04-27T01:13:53.903Z,8.67
2018-04-27T01:14:53.900Z,8.69
2018-04-27T01:15:53.906Z,8.63
2018-04-27T01:16:53.894Z,8.56
2018-04-27T01:17:53.892Z,8.58
2018-04-27T01:18:53.882Z,8.66
2018-04-27T01:19:53.880Z,8.58
2018-04-27T01:20:53.875Z,8.56
2018-04-27T01:21:53.874Z,8.58
2018-04-27T01:22:53.878Z,8.61
2018-04-27T01:23:53.862Z,8.55
2018-04-27T01:24:53.861Z,8.61
2018-04-27T01:25:53.862Z,8.51
2018-04-27T01:26:53.851Z,8.56
2018-04-27T01:27:53.844Z,8.55
2018-04-27T01:28:53.842Z,8.56
2018-04-27T01:29:53.837Z,8.53
2018-04-27T01:30:53.833Z,8.56
2018-04-27T01:31:53.828Z,8.51
2018-04-27T01:32:53.823Z,8.49
2018-04-27T01:33:53.817Z,8.46
2018-04-27T01:34:53.812Z,8.45
2018-04-27T01:35:53.823Z,8.48
2018-04-27T01:36:53.806Z,8.46
2018-04-27T01:37:53.798Z,8.38
2018-04-27T01:38:53.798Z,8.34
2018-04-27T01:39:53.790Z,8.36
2018-04-27T01:40:54.312Z,8.36
2018-04-27T01:41:53.846Z,8.38
2018-04-27T01:42:53.785Z,8.36
2018-04-27T01:43:53.776Z,8.38
2018-04-27T01:44:53.780Z,8.30
2018-04-27T01:45:53.762Z,8.30
2018-04-27T01:46:53.763Z,8.33
2018-04-27T01:47:53.754Z,8.31
2018-04-27T01:48:53.751Z,8.36
2018-04-27T01:49:53.745Z,8.30
2018-04-27T01:50:53.743Z,8.19
2018-04-27T01:51:53.738Z,8.30
2018-04-27T01:52:53.738Z,8.19
2018-04-27T01:53:53.733Z,8.23
2018-04-27T01:54:53.725Z,8.18
2018-04-27T01:55:53.721Z,8.24
2018-04-27T01:56:53.714Z,8.23
2018-04-27T01:57:53.708Z,8.24
2018-04-27T01:58:53.705Z,8.16
2018-04-27T01:59:53.700Z,8.19
2018-04-27T02:00:53.695Z,8.26
2018-04-27T02:01:53.693Z,8.26
2018-04-27T02:02:53.685Z,8.19
2018-04-27T02:03:53.680Z,8.18
2018-04-27T02:04:53.680Z,8.18
2018-04-27T02:05:53.674Z,8.15
2018-04-27T02:06:53.674Z,8.16
2018-04-27T02:07:53.663Z,8.13
2018-04-27T02:08:53.660Z,8.10
2018-04-27T02:09:53.655Z,8.06
2018-04-27T02:10:53.648Z,8.13
2018-04-27T02:11:53.634Z,8.12
2018-04-27T02:12:53.643Z,8.10
2018-04-27T02:13:53.625Z,8.08
2018-04-27T02:14:53.666Z,8.01
2018-04-27T02:15:53.621Z,8.05
2018-04-27T02:16:53.612Z,8.09
2018-04-27T02:17:53.606Z,8.09
2018-04-27T02:18:53.608Z,8.09
2018-04-27T02:19:53.605Z,8.08
2018-04-27T02:20:53.594Z,8.09
2018-04-27T02:21:53.588Z,8.09
2018-04-27T02:22:53.583Z,8.05
2018-04-27T02:23:53.596Z,8.01
2018-04-27T02:24:53.576Z,8.05
2018-04-27T02:25:53.569Z,8.00
2018-04-27T02:26:53.566Z,7.95
2018-04-27T02:27:53.568Z,7.98
2018-04-27T02:28:53.555Z,7.97
2018-04-27T02:29:53.550Z,7.98
2018-04-27T02:30:53.551Z,7.93
2018-04-27T02:31:53.542Z,7.95
2018-04-27T02:32:53.537Z,7.93
2018-04-27T02:33:53.535Z,7.88
2018-04-27T02:34:53.529Z,7.87
2018-04-27T02:35:53.523Z,7.87
2018-04-27T02:36:53.518Z,7.85
2018-04-27T02:37:53.512Z,7.91
2018-04-27T02:38:53.509Z,7.88
2018-04-27T02:39:53.510Z,7.95
2018-04-27T02:40:53.509Z,7.98
2018-04-27T02:41:53.501Z,7.94
2018-04-27T02:42:53.488Z,7.88
2018-04-27T02:43:53.485Z,7.87
2018-04-27T02:44:53.480Z,7.94
2018-04-27T02:45:53.477Z,7.90
2018-04-27T02:46:53.469Z,7.85
2018-04-27T02:47:53.463Z,7.87
2018-04-27T02:48:53.459Z,7.95
2018-04-27T02:49:53.453Z,7.87
2018-04-27T02:50:53.452Z,7.85
2018-04-27T02:51:53.446Z,7.90
2018-04-27T02:52:53.441Z,7.93
2018-04-27T02:53:53.442Z,7.97
2018-04-27T02:54:53.431Z,7.85
2018-04-27T02:55:53.425Z,7.88
2018-04-27T02:56:53.427Z,7.91
2018-04-27T02:57:53.416Z,7.91
2018-04-27T02:58:53.415Z,7.82
2018-04-27T02:59:53.409Z,7.80
2018-04-27T03:00:53.420Z,7.80
2018-04-27T03:01:53.400Z,7.83
2018-04-27T03:02:53.392Z,7.80
2018-04-27T03:03:53.392Z,7.83
2018-04-27T03:04:53.383Z,7.80
2018-04-27T03:05:53.382Z,7.72
2018-04-27T03:06:53.376Z,7.83
2018-04-27T03:07:53.369Z,7.75
2018-04-27T03:08:53.367Z,7.80
2018-04-27T03:09:53.356Z,7.80
2018-04-27T03:10:53.369Z,7.67
2018-04-27T03:11:53.382Z,7.72
2018-04-27T03:12:53.445Z,7.70
2018-04-27T03:13:53.341Z,7.72
2018-04-27T03:14:53.333Z,7.73
2018-04-27T03:15:53.351Z,7.75
2018-04-27T03:16:53.339Z,7.66
2018-04-27T03:17:53.341Z,7.69
2018-04-27T03:18:53.331Z,7.61
2018-04-27T03:19:53.315Z,7.67
2018-04-27T03:20:53.328Z,7.58
2018-04-27T03:21:53.308Z,7.66
2018-04-27T03:22:53.300Z,7.56
2018-04-27T03:23:53.410Z,7.60
2018-04-27T03:24:53.346Z,7.66
2018-04-27T03:25:53.316Z,7.69
2018-04-27T03:26:53.305Z,7.56
2018-04-27T03:27:53.296Z,7.58
2018-04-27T03:28:53.308Z,7.51
2018-04-27T03:29:53.314Z,7.60
2018-04-27T03:30:53.268Z,7.56
2018-04-27T03:31:53.293Z,7.63
2018-04-27T03:32:53.275Z,7.53
2018-04-27T03:33:53.318Z,7.57
2018-04-27T03:34:53.327Z,7.56
2018-04-27T03:35:53.324Z,7.51
2018-04-27T03:36:53.278Z,7.58
2018-04-27T03:37:53.229Z,7.56
2018-04-27T03:38:53.221Z,7.67
2018-04-27T03:39:53.269Z,7.56
2018-04-27T03:40:53.252Z,7.66
2018-04-27T03:41:53.294Z,7.67
2018-04-27T03:42:53.277Z,7.72
2018-04-27T03:43:53.828Z,7.70
2018-04-27T03:44:53.216Z,7.70
2018-04-27T03:45:53.230Z,7.70
2018-04-27T03:46:53.182Z,7.72
2018-04-27T03:47:53.233Z,7.75
2018-04-27T03:48:53.210Z,7.61
2018-04-27T03:49:53.167Z,7.69
2018-04-27T03:50:53.232Z,7.70
2018-04-27T03:51:53.231Z,7.67
2018-04-27T03:52:53.269Z,7.66
2018-04-27T03:53:53.133Z,7.67
2018-04-27T03:54:53.148Z,7.63
2018-04-27T03:55:53.214Z,7.69
2018-04-27T03:56:53.121Z,7.57
2018-04-27T03:57:53.133Z,7.56
2018-04-27T03:58:53.110Z,7.57
2018-04-27T03:59:53.178Z,7.53
2018-04-27T04:00:53.103Z,7.57
2018-04-27T04:01:53.091Z,7.57
2018-04-27T04:02:53.091Z,7.56
2018-04-27T04:03:53.082Z,7.51
2018-04-27T04:04:53.082Z,7.54
2018-04-27T04:05:53.075Z,7.58
2018-04-27T04:06:53.066Z,7.58
2018-04-27T04:07:53.061Z,7.56
2018-04-27T04:08:53.066Z,7.54
2018-04-27T04:09:53.048Z,7.56
2018-04-27T04:10:53.055Z,7.63
2018-04-27T04:11:53.041Z,7.58
2018-04-27T04:12:53.037Z,7.54
2018-04-27T04:13:53.027Z,7.57
2018-04-27T04:14:53.023Z,7.57
2018-04-27T04:15:53.018Z,7.56
2018-04-27T04:16:53.012Z,7.58
2018-04-27T04:17:53.007Z,7.61
2018-04-27T04:18:53.003Z,7.56
2018-04-27T04:19:52.995Z,7.54
2018-04-27T04:20:52.994Z,7.67
2018-04-27T04:21:52.985Z,7.54
2018-04-27T04:22:52.981Z,7.51
2018-04-27T04:23:52.978Z,7.63
2018-04-27T04:24:52.972Z,7.67
2018-04-27T04:25:52.979Z,7.63
2018-04-27T04:26:52.966Z,7.67
2018-04-27T04:27:52.961Z,7.66
2018-04-27T04:28:52.962Z,7.67
2018-04-27T04:29:52.948Z,7.69
2018-04-27T04:30:52.947Z,7.70
2018-04-27T04:31:52.932Z,7.63
2018-04-27T04:32:52.928Z,7.70
2018-04-27T04:33:52.925Z,7.66
2018-04-27T04:34:52.917Z,7.70
2018-04-27T04:35:52.917Z,7.67
2018-04-27T04:36:52.912Z,7.72
2018-04-27T04:37:52.902Z,7.61
2018-04-27T04:38:52.895Z,7.67
2018-04-27T04:39:52.897Z,7.51
2018-04-27T04:40:52.890Z,7.60
2018-04-27T04:41:52.881Z,7.53
2018-04-27T04:42:52.876Z,7.67
2018-04-27T04:43:52.869Z,7.70
2018-04-27T04:44:52.866Z,7.66
2018-04-27T04:45:52.860Z,7.66
2018-04-27T04:46:52.854Z,7.72
2018-04-27T04:47:52.853Z,7.72
2018-04-27T04:48:52.854Z,7.69
2018-04-27T04:49:52.841Z,7.69
2018-04-27T04:50:52.833Z,7.72
2018-04-27T04:51:52.833Z,7.70
2018-04-27T04:52:52.824Z,7.79
2018-04-27T04:53:52.820Z,7.79
2018-04-27T04:54:52.814Z,7.76
2018-04-27T04:55:52.806Z,7.85
2018-04-27T04:56:52.802Z,7.85
2018-04-27T04:57:52.797Z,7.80
2018-04-27T04:58:52.789Z,7.75
2018-04-27T04:59:52.787Z,7.87
2018-04-27T05:00:52.778Z,7.80
2018-04-27T05:01:52.779Z,7.79
2018-04-27T05:02:52.774Z,7.88
2018-04-27T05:03:52.770Z,7.95
2018-04-27T05:04:52.763Z,7.94
2018-04-27T05:05:52.752Z,7.87
2018-04-27T05:06:52.757Z,7.98
2018-04-27T05:07:52.743Z,7.97
2018-04-27T05:08:52.738Z,7.95
2018-04-27T05:09:52.732Z,8.00
2018-04-27T05:10:52.805Z,7.97
2018-04-27T05:11:52.723Z,8.01
2018-04-27T05:12:52.733Z,8.00
2018-04-27T05:13:52.712Z,8.05
2018-04-27T05:14:52.711Z,8.05
2018-04-27T05:15:52.977Z,8.08
2018-04-27T05:16:52.701Z,8.19
2018-04-27T05:17:52.691Z,8.23
2018-04-27T05:18:52.687Z,8.30
2018-04-27T05:19:52.689Z,8.28
2018-04-27T05:20:52.677Z,8.34
2018-04-27T05:21:52.676Z,8.38
2018-04-27T05:22:52.669Z,8.31
2018-04-27T05:23:52.666Z,8.48
2018-04-27T05:24:52.658Z,8.53
2018-04-27T05:25:52.651Z,8.67
2018-04-27T05:26:52.648Z,8.71
2018-04-27T05:27:52.649Z,8.81
2018-04-27T05:28:52.641Z,8.81
2018-04-27T05:29:52.637Z,8.74
2018-04-27T05:30:52.635Z,8.88
2018-04-27T05:31:52.622Z,8.97
2018-04-27T05:32:52.623Z,8.91
2018-04-27T05:33:52.613Z,8.84
2018-04-27T05:34:52.610Z,8.89
2018-04-27T05:35:52.604Z,8.84
2018-04-27T05:36:52.605Z,8.79
2018-04-27T05:37:52.597Z,8.87
2018-04-27T05:38:52.590Z,8.79
2018-04-27T05:39:52.592Z,8.88
2018-04-27T05:40:52.585Z,8.88
2018-04-27T05:41:52.578Z,9.16
2018-04-27T05:42:52.598Z,9.22
2018-04-27T05:43:52.574Z,9.14
2018-04-27T05:44:52.572Z,9.08
2018-04-27T05:45:52.567Z,9.10
2018-04-27T05:46:53.366Z,9.02
2018-04-27T05:47:52.568Z,9.00
2018-04-27T05:48:52.618Z,9.06
2018-04-27T05:49:52.548Z,9.14
2018-04-27T05:50:52.542Z,9.18
2018-04-27T05:51:52.543Z,9.14
2018-04-27T05:52:52.530Z,9.14
2018-04-27T05:53:52.526Z,9.06
2018-04-27T05:54:52.523Z,9.10
2018-04-27T05:55:52.535Z,9.04
2018-04-27T05:56:52.514Z,9.08
2018-04-27T05:57:52.519Z,9.11
2018-04-27T05:58:52.505Z,9.06
2018-04-27T05:59:52.503Z,9.03
2018-04-27T06:00:52.507Z,9.13
2018-04-27T06:01:52.494Z,9.18
2018-04-27T06:02:52.491Z,9.19
2018-04-27T06:03:52.485Z,9.26
2018-04-27T06:04:52.481Z,9.37
2018-04-27T06:05:52.476Z,9.36
2018-04-27T06:06:52.478Z,9.44
2018-04-27T06:07:52.469Z,9.65
2018-04-27T06:08:52.467Z,9.61
2018-04-27T06:09:52.460Z,9.64
2018-04-27T06:10:52.458Z,9.77
2018-04-27T06:11:52.453Z,9.73
2018-04-27T06:12:52.451Z,9.72
2018-04-27T06:13:52.445Z,9.69
2018-04-27T06:14:52.443Z,9.69
2018-04-27T06:15:52.438Z,9.73
2018-04-27T06:16:52.436Z,9.80
2018-04-27T06:17:52.432Z,9.82
2018-04-27T06:18:52.428Z,9.92
2018-04-27T06:19:52.424Z,9.92
2018-04-27T06:20:52.426Z,9.95
2018-04-27T06:21:52.416Z,10.01
2018-04-27T06:22:52.415Z,9.94
2018-04-27T06:23:52.412Z,9.98
2018-04-27T06:24:52.408Z,10.02
2018-04-27T06:25:52.402Z,9.99
2018-04-27T06:26:52.404Z,10.05
2018-04-27T06:27:52.396Z,10.02
2018-04-27T06:28:52.392Z,10.15
2018-04-27T06:29:52.396Z,10.20
2018-04-27T06:30:52.394Z,10.19
2018-04-27T06:31:52.416Z,10.17
2018-04-27T06:32:52.381Z,10.30
2018-04-27T06:33:52.381Z,10.30
2018-04-27T06:34:52.423Z,10.28
2018-04-27T06:35:52.371Z,10.34
2018-04-27T06:36:52.373Z,10.34
2018-04-27T06:37:52.503Z,10.35
2018-04-27T06:38:52.359Z,10.37
2018-04-27T06:39:52.356Z,10.34
2018-04-27T06:40:52.353Z,10.51
2018-04-27T06:41:52.352Z,10.53
2018-04-27T06:42:52.349Z,10.56
2018-04-27T06:43:52.344Z,10.53
2018-04-27T06:44:52.354Z,10.53
2018-04-27T06:45:52.342Z,10.59
2018-04-27T06:46:52.344Z,10.54
2018-04-27T06:47:52.333Z,10.60
2018-04-27T06:48:52.333Z,10.61
2018-04-27T06:49:52.324Z,10.60
2018-04-27T06:50:52.324Z,10.64
2018-04-27T06:51:52.326Z,10.67
2018-04-27T06:52:52.322Z,10.67
2018-04-27T06:53:52.326Z,10.75
2018-04-27T06:54:52.315Z,10.75
2018-04-27T06:55:52.313Z,10.79
2018-04-27T06:56:52.314Z,10.84
2018-04-27T06:57:52.302Z,10.86
2018-04-27T06:58:52.302Z,10.96
2018-04-27T06:59:52.307Z,11.04
2018-04-27T07:00:52.303Z,11.00
2018-04-27T07:01:52.292Z,11.00
2018-04-27T07:02:52.549Z,11.08
2018-04-27T07:03:52.324Z,11.04
2018-04-27T07:04:52.295Z,11.05
2018-04-27T07:05:52.283Z,11.12
2018-04-27T07:06:52.487Z,11.23
2018-04-27T07:07:52.278Z,11.23
2018-04-27T07:08:52.274Z,11.25
2018-04-27T07:09:52.273Z,11.26
2018-04-27T07:10:52.270Z,11.32
2018-04-27T07:11:52.287Z,11.22
2018-04-27T07:12:52.267Z,11.26
2018-04-27T07:13:52.260Z,11.23
2018-04-27T07:14:52.261Z,11.19
2018-04-27T07:15:52.257Z,11.17
2018-04-27T07:16:52.283Z,11.19
2018-04-27T07:17:52.253Z,11.23
2018-04-27T07:18:52.526Z,11.32
2018-04-27T07:19:52.247Z,11.35
2018-04-27T07:20:52.243Z,11.40
2018-04-27T07:21:52.240Z,11.41
2018-04-27T07:22:52.242Z,11.47
2018-04-27T07:23:52.235Z,11.45
2018-04-27T07:24:52.240Z,11.54
2018-04-27T07:25:52.241Z,11.52
2018-04-27T07:26:52.228Z,11.65
2018-04-27T07:27:52.225Z,11.70
2018-04-27T07:28:52.228Z,11.75
2018-04-27T07:29:52.221Z,11.88
2018-04-27T07:30:52.239Z,11.91
2018-04-27T07:31:52.221Z,11.91
2018-04-27T07:32:52.220Z,11.97
2018-04-27T07:33:52.274Z,11.91
2018-04-27T07:34:52.224Z,12.04
2018-04-27T07:35:52.213Z,12.06
2018-04-27T07:36:52.210Z,12.06
2018-04-27T07:37:52.229Z,12.17
2018-04-27T07:38:52.204Z,12.18
2018-04-27T07:39:53.238Z,12.17
2018-04-27T07:40:52.200Z,12.22
2018-04-27T07:41:52.222Z,12.29
2018-04-27T07:42:52.205Z,12.35
2018-04-27T07:43:52.420Z,12.39
2018-04-27T07:44:52.197Z,12.24
2018-04-27T07:45:52.189Z,12.32
2018-04-27T07:46:52.215Z,12.25
2018-04-27T07:47:52.187Z,12.25
2018-04-27T07:48:52.186Z,12.24
2018-04-27T07:49:52.932Z,12.35
2018-04-27T07:50:52.181Z,12.31
2018-04-27T07:51:52.180Z,12.35
2018-04-27T07:52:52.185Z,12.28
2018-04-27T07:53:52.183Z,12.40
2018-04-27T07:54:52.174Z,12.32
2018-04-27T07:55:52.173Z,12.28
2018-04-27T07:56:52.172Z,12.31
2018-04-27T07:57:52.171Z,12.31
2018-04-27T07:58:52.187Z,12.32
2018-04-27T07:59:52.292Z,12.40
2018-04-27T08:00:52.256Z,12.36
2018-04-27T08:01:52.440Z,12.47
2018-04-27T08:02:52.160Z,12.49
2018-04-27T08:03:52.160Z,12.43
2018-04-27T08:04:53.060Z,12.49
2018-04-27T08:05:52.154Z,12.60
2018-04-27T08:06:52.158Z,12.64
2018-04-27T08:07:53.121Z,12.61
2018-04-27T08:08:52.157Z,12.73
2018-04-27T08:09:52.148Z,12.70
2018-04-27T08:10:52.153Z,12.68
2018-04-27T08:11:52.147Z,12.85
2018-04-27T08:12:52.962Z,12.94
2018-04-27T08:13:52.143Z,12.93
2018-04-27T08:14:52.147Z,13.00
2018-04-27T08:15:52.147Z,12.98
2018-04-27T08:16:52.139Z,13.04
2018-04-27T08:17:52.136Z,13.11
2018-04-27T08:18:52.137Z,13.20
2018-04-27T08:19:52.136Z,13.19
2018-04-27T08:20:52.133Z,13.28
2018-04-27T08:21:52.132Z,13.23
2018-04-27T08:22:52.129Z,13.30
2018-04-27T08:23:52.149Z,13.46
2018-04-27T08:24:52.133Z,13.33
2018-04-27T08:25:52.134Z,13.39
2018-04-27T08:26:52.131Z,13.47
2018-04-27T08:27:52.128Z,13.46
2018-04-27T08:28:52.123Z,13.49
2018-04-27T08:29:52.122Z,13.56
2018-04-27T08:30:52.120Z,13.59
2018-04-27T08:31:52.119Z,13.68
2018-04-27T08:32:52.119Z,13.70
2018-04-27T08:33:52.117Z,13.74
2018-04-27T08:34:52.120Z,13.72
2018-04-27T08:35:52.122Z,13.89
2018-04-27T08:36:52.117Z,13.85
2018-04-27T08:37:52.116Z,13.97
2018-04-27T08:38:52.120Z,13.96
2018-04-27T08:39:52.112Z,14.03
2018-04-27T08:40:52.119Z,14.08
2018-04-27T08:41:52.110Z,14.07
2018-04-27T08:42:52.322Z,14.05
2018-04-27T08:43:52.180Z,14.11
2018-04-27T08:44:52.109Z,14.11
2018-04-27T08:45:52.109Z,14.17
2018-04-27T08:46:52.113Z,14.17
2018-04-27T08:47:52.112Z,14.25
2018-04-27T08:48:52.107Z,14.23
2018-04-27T08:49:52.180Z,14.32
2018-04-27T08:50:52.109Z,14.23
2018-04-27T08:51:52.106Z,14.40
2018-04-27T08:52:52.108Z,14.41
2018-04-27T08:53:52.108Z,14.54
2018-04-27T08:54:52.105Z,15.09
2018-04-27T08:55:52.116Z,15.72
2018-04-27T08:56:52.111Z,16.51
2018-04-27T08:57:52.108Z,17.54
2018-04-27T08:58:52.104Z,18.37
2018-04-27T08:59:52.106Z,19.26
2018-04-27T09:00:52.108Z,20.02
2018-04-27T09:01:52.112Z,20.97
2018-04-27T09:02:52.112Z,21.80
2018-04-27T09:03:52.160Z,22.53
2018-04-27T09:04:52.137Z,22.98
2018-04-27T09:05:52.120Z,23.48
2018-04-27T09:06:52.244Z,23.55
2018-04-27T09:07:52.127Z,23.84
2018-04-27T09:08:52.135Z,24.18
2018-04-27T09:09:52.140Z,24.36
2018-04-27T09:10:52.145Z,24.58
2018-04-27T09:11:52.150Z,24.50
2018-04-27T09:12:52.153Z,24.14
2018-04-27T09:13:52.159Z,23.37
2018-04-27T09:14:52.164Z,22.70
2018-04-27T09:15:52.236Z,21.72
2018-04-27T09:16:52.178Z,20.96
2018-04-27T09:17:52.185Z,20.47
2018-04-27T09:18:52.193Z,20.02
2018-04-27T09:19:52.202Z,19.71
2018-04-27T09:20:52.201Z,19.34
2018-04-27T09:21:52.209Z,18.89
2018-04-27T09:22:52.209Z,18.62
2018-04-27T09:23:52.223Z,18.35
2018-04-27T09:24:52.222Z,18.11
2018-04-27T09:25:52.224Z,18.07
2018-04-27T09:26:52.285Z,18.00
2018-04-27T09:27:52.241Z,17.78
2018-04-27T09:28:52.237Z,17.63
2018-04-27T09:29:52.268Z,17.56
2018-04-27T09:30:52.247Z,17.34
2018-04-27T09:31:52.250Z,17.34
2018-04-27T09:32:52.259Z,17.27
2018-04-27T09:33:52.262Z,17.11
2018-04-27T09:34:52.259Z,17.11
2018-04-27T09:35:52.262Z,17.09
2018-04-27T09:36:52.269Z,17.06
2018-04-27T09:37:52.268Z,17.14
2018-04-27T09:38:52.292Z,17.12
2018-04-27T09:39:52.274Z,17.06
2018-04-27T09:40:52.278Z,17.04
2018-04-27T09:41:52.302Z,17.06
2018-04-27T09:42:52.284Z,16.94
2018-04-27T09:43:52.285Z,16.93
2018-04-27T09:44:52.286Z,16.99
2018-04-27T09:45:52.288Z,17.11
2018-04-27T09:46:52.292Z,17.06
2018-04-27T09:47:52.295Z,17.16
2018-04-27T09:48:52.298Z,17.19
2018-04-27T09:49:52.297Z,17.19
2018-04-27T09:50:52.300Z,17.29
2018-04-27T09:51:52.307Z,17.36
2018-04-27T09:52:52.557Z,17.42
2018-04-27T09:53:52.312Z,17.44
2018-04-27T09:54:52.311Z,17.45
2018-04-27T09:55:52.315Z,17.65
2018-04-27T09:56:52.332Z,17.63
2018-04-27T09:57:52.326Z,17.70
2018-04-27T09:58:52.334Z,17.70
2018-04-27T09:59:52.484Z,17.78
2018-04-27T10:00:52.337Z,17.80
2018-04-27T10:01:52.330Z,17.86
2018-04-27T10:02:52.326Z,17.97
2018-04-27T10:03:52.339Z,17.98
2018-04-27T10:04:52.338Z,17.92
2018-04-27T10:05:52.335Z,18.01
2018-04-27T10:06:52.345Z,17.87
2018-04-27T10:07:52.340Z,17.95
2018-04-27T10:08:52.348Z,18.00
2018-04-27T10:09:52.357Z,18.16
2018-04-27T10:10:52.346Z,18.10
2018-04-27T10:11:52.350Z,18.13
2018-04-27T10:12:52.352Z,18.15
2018-04-27T10:13:52.355Z,18.10
2018-04-27T10:14:52.370Z,18.20
2018-04-27T10:15:52.360Z,18.19
2018-04-27T10:16:52.362Z,18.31
2018-04-27T10:17:52.379Z,18.37
2018-04-27T10:18:52.367Z,18.43
2018-04-27T10:19:52.392Z,18.45
2018-04-27T10:20:52.374Z,18.40
2018-04-27T10:21:52.376Z,18.37
2018-04-27T10:22:52.378Z,18.41
2018-04-27T10:23:52.941Z,18.50
2018-04-27T10:24:52.397Z,18.55
2018-04-27T10:25:52.399Z,18.59
2018-04-27T10:26:52.406Z,18.74
2018-04-27T10:27:52.401Z,18.81
2018-04-27T10:28:52.399Z,18.89
2018-04-27T10:29:52.409Z,18.95
2018-04-27T10:30:52.486Z,19.11
2018-04-27T10:31:52.413Z,19.14
2018-04-27T10:32:52.427Z,19.22
2018-04-27T10:33:52.410Z,19.48
2018-04-27T10:34:52.425Z,19.76
2018-04-27T10:35:52.431Z,20.03
2018-04-27T10:36:52.424Z,20.31
2018-04-27T10:37:52.429Z,20.90
2018-04-27T10:38:52.508Z,21.29
2018-04-27T10:39:52.442Z,21.73
2018-04-27T10:40:52.439Z,21.95
2018-04-27T10:41:52.442Z,22.23
2018-04-27T10:42:52.458Z,22.35
2018-04-27T10:43:52.453Z,22.51
2018-04-27T10:44:52.458Z,22.63
2018-04-27T10:45:52.463Z,22.87
2018-04-27T10:46:52.470Z,22.94
2018-04-27T10:47:52.475Z,23.09
2018-04-27T10:48:52.492Z,23.20
2018-04-27T10:49:52.493Z,23.37
2018-04-27T10:50:52.499Z,23.36
2018-04-27T10:51:52.503Z,23.37
2018-04-27T10:52:52.517Z,23.25
2018-04-27T10:53:52.511Z,23.24
2018-04-27T10:54:53.313Z,23.32
2018-04-27T10:55:52.526Z,23.31
2018-04-27T10:56:52.533Z,23.24
2018-04-27T10:57:52.543Z,23.31
2018-04-27T10:58:52.545Z,23.36
2018-04-27T10:59:52.556Z,23.25
2018-04-27T11:00:52.561Z,22.94
2018-04-27T11:01:52.570Z,22.83
2018-04-27T11:02:52.573Z,22.66
2018-04-27T11:03:52.578Z,22.33
2018-04-27T11:04:52.584Z,22.08
2018-04-27T11:05:52.598Z,21.91
2018-04-27T11:06:52.599Z,21.77
2018-04-27T11:07:52.604Z,21.55
2018-04-27T11:08:52.724Z,21.32
2018-04-27T11:09:52.640Z,21.33
2018-04-27T11:10:52.734Z,21.30
2018-04-27T11:11:52.629Z,21.14
2018-04-27T11:12:52.651Z,21.18
2018-04-27T11:13:52.639Z,21.15
2018-04-27T11:14:52.648Z,21.09
2018-04-27T11:15:52.654Z,21.03
2018-04-27T11:16:52.990Z,21.12
2018-04-27T11:17:52.662Z,21.09
2018-04-27T11:18:52.671Z,20.92
2018-04-27T11:19:52.677Z,20.88
2018-04-27T11:20:52.678Z,20.82
2018-04-27T11:21:52.689Z,20.90
2018-04-27T11:22:52.690Z,20.90
2018-04-27T11:23:52.695Z,20.84
2018-04-27T11:24:52.700Z,20.82
2018-04-27T11:25:53.698Z,20.78
2018-04-27T11:26:52.707Z,20.74
2018-04-27T11:27:52.713Z,20.70
2018-04-27T11:28:52.719Z,20.63
2018-04-27T11:29:52.736Z,20.50
2018-04-27T11:30:52.727Z,20.55
2018-04-27T11:31:52.734Z,20.50
2018-04-27T11:32:52.739Z,20.50
2018-04-27T11:33:52.743Z,20.62
2018-04-27T11:34:52.748Z,20.65
2018-04-27T11:35:52.760Z,20.66
2018-04-27T11:36:52.757Z,20.80
2018-04-27T11:37:52.767Z,20.74
2018-04-27T11:38:52.769Z,20.88
2018-04-27T11:39:52.771Z,20.88
2018-04-27T11:40:52.774Z,20.85
2018-04-27T11:41:52.782Z,20.70
2018-04-27T11:42:52.787Z,20.56
2018-04-27T11:43:52.813Z,20.34
2018-04-27T11:44:52.798Z,20.24
2018-04-27T11:45:52.802Z,20.19
2018-04-27T11:46:52.814Z,20.13
2018-04-27T11:47:52.815Z,20.09
2018-04-27T11:48:52.811Z,20.04
2018-04-27T11:49:52.817Z,20.03
2018-04-27T11:50:52.820Z,20.02
2018-04-27T11:51:52.826Z,20.03
2018-04-27T11:52:52.829Z,19.91
2018-04-27T11:53:52.836Z,19.91
2018-04-27T11:54:52.836Z,19.92
2018-04-27T11:55:52.844Z,19.79
2018-04-27T11:56:53.055Z,19.74
2018-04-27T11:57:52.854Z,19.70
2018-04-27T11:58:52.867Z,19.84
2018-04-27T11:59:52.915Z,19.88
2018-04-27T12:00:52.864Z,19.86
2018-04-27T12:01:52.866Z,19.86
2018-04-27T12:02:52.873Z,19.88
2018-04-27T12:03:52.876Z,19.88
2018-04-27T12:04:52.880Z,19.89
2018-04-27T12:05:52.880Z,19.84
2018-04-27T12:06:52.885Z,19.77
2018-04-27T12:07:52.889Z,19.74
2018-04-27T12:08:52.895Z,19.67
2018-04-27T12:09:52.905Z,19.81
2018-04-27T12:10:52.901Z,19.77
2018-04-27T12:11:52.907Z,19.67
2018-04-27T12:12:52.914Z,19.70
2018-04-27T12:13:52.915Z,19.73
2018-04-27T12:14:52.931Z,19.55
2018-04-27T12:15:52.920Z,19.54
2018-04-27T12:16:52.924Z,19.45
2018-04-27T12:17:52.931Z,19.48
2018-04-27T12:18:52.933Z,19.39
2018-04-27T12:19:52.934Z,19.29
2018-04-27T12:20:52.937Z,19.27
2018-04-27T12:21:52.942Z,19.15
2018-04-27T12:22:52.943Z,19.16
2018-04-27T12:23:52.965Z,19.22
2018-04-27T12:24:52.953Z,19.31
2018-04-27T12:25:52.955Z,19.26
2018-04-27T12:26:52.966Z,19.15
2018-04-27T12:27:52.974Z,19.21
2018-04-27T12:28:52.967Z,19.14
2018-04-27T12:29:52.968Z,19.18
2018-04-27T12:30:53.039Z,19.31
2018-04-27T12:31:53.101Z,19.30
2018-04-27T12:32:52.981Z,19.36
2018-04-27T12:33:52.991Z,19.33
2018-04-27T12:34:52.986Z,19.31
2018-04-27T12:35:52.988Z,19.39
2018-04-27T12:36:52.991Z,19.36
2018-04-27T12:37:52.995Z,19.40
2018-04-27T12:38:53.011Z,19.36
2018-04-27T12:39:53.002Z,19.36
2018-04-27T12:40:53.004Z,19.39
2018-04-27T12:41:53.007Z,19.40
2018-04-27T12:42:53.013Z,19.39
2018-04-27T12:43:53.014Z,19.40
2018-04-27T12:44:53.024Z,19.44
2018-04-27T12:45:53.024Z,19.36
2018-04-27T12:46:53.024Z,19.36
2018-04-27T12:47:53.028Z,19.41
2018-04-27T12:48:53.029Z,19.36
2018-04-27T12:49:53.031Z,19.37
2018-04-27T12:50:53.042Z,19.44
2018-04-27T12:51:53.039Z,19.44
2018-04-27T12:52:53.044Z,19.44
2018-04-27T12:53:53.045Z,19.41
2018-04-27T12:54:53.049Z,19.29
2018-04-27T12:55:53.053Z,19.16
2018-04-27T12:56:53.056Z,19.12
2018-04-27T12:57:53.062Z,19.08
2018-04-27T12:58:53.065Z,19.09
2018-04-27T12:59:53.102Z,19.11
2018-04-27T13:00:53.067Z,19.12
2018-04-27T13:01:53.072Z,19.07
2018-04-27T13:02:53.072Z,19.21
2018-04-27T13:03:53.076Z,19.24
2018-04-27T13:04:53.080Z,19.26
2018-04-27T13:05:53.082Z,19.31